Time;durP1;ratioP1;P1;durP2;ratioP2;P2;SDS_P1;SDS_P2;PMS_P1;PMS_P2;Temp;Humidity;BMP_temperature;BMP_pressure;BME280_temperature;BME280_humidity;BME280_pressure;Samples;Min_cycle;Max_cycle;Signal;HPM_P1;HPM_P2
2024/02/09 00:02:03;;;;;;;45.60;18.10;;;;;;;1.24;100.00;98938.52;217302;1291;139124;-86
2024/02/09 00:07:04;;;;;;;44.00;17.40;;;;;;;1.23;100.00;98943.00;217736;1292;138271;-86
2024/02/09 00:12:06;;;;;;;40.70;18.30;;;;;;;1.24;100.00;98939.63;217354;1290;140010;-87
2024/02/09 00:17:07;;;;;;;40.00;18.00;;;;;;;1.27;100.00;98935.38;217791;1291;138048;-86
2024/02/09 00:22:07;;;;;;;37.70;17.30;;;;;;;1.24;100.00;98927.06;217294;1290;139205;-86
2024/02/09 00:27:08;;;;;;;41.80;19.20;;;;;;;1.20;100.00;98924.90;217751;1290;138362;-86
2024/02/09 00:32:09;;;;;;;36.10;16.90;;;;;;;1.18;100.00;98928.10;217229;1291;139331;-85
2024/02/09 00:37:09;;;;;;;36.10;17.30;;;;;;;1.18;100.00;98938.80;218211;1291;138220;-85
2024/02/09 00:42:12;;;;;;;167.70;56.00;;;;;;;1.17;100.00;98938.36;217274;1291;140836;-85
2024/02/09 00:47:13;;;;;;;57.70;24.10;;;;;;;1.14;100.00;98937.38;217742;1292;93807;-86
2024/02/09 00:52:14;;;;;;;46.00;19.10;;;;;;;1.16;100.00;98935.39;217194;1291;139775;-86
2024/02/09 00:57:15;;;;;;;47.50;20.20;;;;;;;1.14;100.00;98930.56;217831;1290;138178;-86
2024/02/09 01:02:17;;;;;;;67.10;22.60;;;;;;;1.14;100.00;98930.48;217265;1290;139976;-86
2024/02/09 01:07:17;;;;;;;75.20;25.80;;;;;;;1.14;100.00;98928.99;217775;1290;138299;-86
2024/02/09 03:09:05;;;;;;;33.70;15.10;;;;;;;0.75;100.00;98851.15;217806;1290;138302;-84
2024/02/09 03:14:05;;;;;;;38.30;16.20;;;;;;;0.74;100.00;98838.05;217097;1291;139185;-85
2024/02/09 03:19:06;;;;;;;45.70;15.40;;;;;;;0.76;100.00;98829.76;215835;1291;138162;-85
2024/02/09 03:24:07;;;;;;;44.60;16.20;;;;;;;0.77;100.00;98843.08;216054;1290;139952;-86
2024/02/09 03:29:07;;;;;;;41.20;15.40;;;;;;;0.78;100.00;98847.19;217674;1290;138065;-86
2024/02/09 03:34:07;;;;;;;32.90;13.30;;;;;;;0.78;100.00;98831.26;217136;1290;139496;-88
2024/02/09 03:39:08;;;;;;;42.00;13.50;;;;;;;0.77;100.00;98817.48;218242;1289;137009;-86
2024/02/09 03:44:08;;;;;;;170.60;66.30;;;;;;;0.78;100.00;98834.21;217179;1290;139425;-87
2024/02/09 03:49:11;;;;;;;50.70;18.70;;;;;;;0.77;100.00;98824.60;217829;1290;138546;-87
2024/02/09 03:54:13;;;;;;;52.50;16.40;;;;;;;0.79;100.00;98814.66;217375;1290;139296;-87
2024/02/09 03:59:15;;;;;;;47.80;16.30;;;;;;;0.80;100.00;98818.46;217743;1290;137924;-86
2024/02/09 04:04:18;;;;;;;37.10;14.00;;;;;;;0.81;100.00;98813.06;217198;1291;139276;-88
2024/02/09 04:09:18;;;;;;;26.80;10.70;;;;;;;0.80;100.00;98814.98;217770;1291;138281;-86
2024/02/09 04:14:19;;;;;;;28.20;9.70;;;;;;;0.80;100.00;98818.94;216964;1291;139981;-87
2024/02/09 04:19:20;;;;;;;22.30;9.90;;;;;;;0.82;100.00;98809.77;217700;1290;137985;-87
2024/02/09 04:24:24;;;;;;;22.70;9.90;;;;;;;0.82;100.00;98801.73;217294;1290;139039;-86
2024/02/09 04:29:26;;;;;;;24.50;9.20;;;;;;;0.82;100.00;98794.84;217767;1290;109208;-88
2024/02/09 04:34:26;;;;;;;41.70;19.20;;;;;;;0.82;100.00;98783.55;217274;1290;139366;-88
2024/02/09 04:39:27;;;;;;;26.70;12.30;;;;;;;0.81;100.00;98781.81;218251;1290;138478;-88
2024/02/09 04:44:27;;;;;;;23.90;8.70;;;;;;;0.82;100.00;98775.74;217351;1290;139721;-88
2024/02/09 04:49:27;;;;;;;26.10;9.60;;;;;;;0.86;100.00;98762.52;217828;1290;139576;-87
2024/02/09 04:54:28;;;;;;;19.90;8.30;;;;;;;0.86;100.00;98757.51;217214;1290;139744;-87
2024/02/09 04:59:30;;;;;;;17.30;7.60;;;;;;;0.87;100.00;98743.28;217942;1290;96471;-87
2024/02/09 05:04:31;;;;;;;20.00;8.90;;;;;;;0.88;100.00;98734.70;215458;1291;138981;-87
2024/02/09 05:09:31;;;;;;;17.00;7.20;;;;;;;0.88;100.00;98737.02;216428;1290;138349;-87
2024/02/09 05:14:32;;;;;;;17.60;7.00;;;;;;;0.89;100.00;98737.90;217127;1290;138970;-88
2024/02/09 05:19:36;;;;;;;21.30;7.90;;;;;;;0.90;100.00;98750.23;217815;1291;138393;-86
2024/02/09 05:24:37;;;;;;;19.40;7.10;;;;;;;0.92;100.00;98748.40;217254;1290;139132;-87
2024/02/09 05:29:38;;;;;;;16.70;7.80;;;;;;;0.92;100.00;98739.06;217861;1290;96596;-86
2024/02/09 05:34:45;;;;;;;38.90;20.40;;;;;;;0.95;100.00;98739.34;217276;1290;138997;-88
2024/02/09 05:39:46;;;;;;;20.10;8.30;;;;;;;0.95;100.00;98731.79;217938;1291;138469;-85
2024/02/09 05:44:46;;;;;;;15.70;7.20;;;;;;;0.96;100.00;98720.35;217659;1291;137741;-86
2024/02/09 05:49:48;;;;;;;19.70;7.10;;;;;;;0.98;100.00;98711.02;217806;1290;138207;-85
2024/02/09 05:54:48;;;;;;;14.50;6.50;;;;;;;0.98;100.00;98695.39;217280;1289;140396;-87
2024/02/09 05:59:49;;;;;;;14.60;5.50;;;;;;;0.99;100.00;98693.71;217956;1290;96434;-89
2024/02/09 06:04:49;;;;;;;14.40;6.20;;;;;;;0.97;100.00;98687.80;217232;1290;139068;-87
2024/02/09 06:09:51;;;;;;;14.90;6.70;;;;;;;0.98;100.00;98697.48;217806;1288;138455;-87
2024/02/09 06:14:52;;;;;;;12.20;5.70;;;;;;;1.00;100.00;98695.59;217397;1291;139621;-86
2024/02/09 06:19:53;;;;;;;28.60;12.10;;;;;;;1.02;100.00;98699.80;217575;1291;138433;-88
2024/02/09 06:24:54;;;;;;;23.00;8.10;;;;;;;1.02;100.00;98688.67;217328;1289;139701;-87
2024/02/09 06:29:55;;;;;;;17.50;6.80;;;;;;;1.04;100.00;98683.60;217559;1289;139628;-85
2024/02/09 06:34:55;;;;;;;14.70;6.20;;;;;;;1.05;100.00;98686.40;217524;1290;138861;-89
2024/02/09 06:39:56;;;;;;;14.10;6.10;;;;;;;1.06;100.00;98682.96;217300;1291;138872;-87
2024/02/09 06:44:57;;;;;;;15.10;6.30;;;;;;;1.07;100.00;98685.30;217737;1290;245607;-87
2024/02/09 06:49:57;;;;;;;15.60;6.20;;;;;;;1.08;100.00;98682.84;215262;1290;139464;-84
2024/02/09 06:54:58;;;;;;;21.00;10.80;;;;;;;1.10;100.00;98688.29;216465;1291;138395;-87
2024/02/09 06:59:58;;;;;;;19.90;10.00;;;;;;;1.11;100.00;98692.96;217155;1289;139432;-88
2024/02/09 07:05:01;;;;;;;21.60;9.50;;;;;;;1.12;100.00;98691.89;217589;1293;138207;-90
2024/02/09 07:10:02;;;;;;;28.70;10.90;;;;;;;1.12;100.00;98683.39;217160;1290;140207;-88
2024/02/09 07:15:03;;;;;;;21.10;9.40;;;;;;;1.13;100.00;98678.20;217767;1289;138861;-88
2024/02/09 07:20:04;;;;;;;24.90;10.50;;;;;;;1.13;100.00;98666.53;217019;1289;139672;-87
2024/02/09 07:25:05;;;;;;;28.90;13.40;;;;;;;1.12;100.00;98659.38;217478;1289;138364;-89
2024/02/09 07:30:07;;;;;;;29.40;13.00;;;;;;;1.12;100.00;98657.83;217326;1289;139511;-88
2024/02/09 07:35:07;;;;;;;26.50;11.90;;;;;;;1.12;100.00;98656.20;217357;1290;138189;-90
2024/02/09 07:40:09;;;;;;;23.00;10.90;;;;;;;1.12;100.00;98657.77;216884;1289;139458;-89
2024/02/09 07:45:15;;;;;;;24.90;11.70;;;;;;;1.08;100.00;98648.02;218213;1290;138452;-88
2024/02/09 07:50:16;;;;;;;28.60;13.00;;;;;;;1.05;100.00;98644.84;217066;1291;140437;-87
2024/02/09 07:55:18;;;;;;;31.00;13.40;;;;;;;1.02;100.00;98635.81;217558;1288;138409;-86
2024/02/09 08:00:20;;;;;;;25.60;13.40;;;;;;;1.01;100.00;98634.70;217123;1291;140847;-86
2024/02/09 08:05:20;;;;;;;34.80;15.30;;;;;;;0.97;100.00;98630.98;217442;1290;95768;-87
2024/02/09 08:10:21;;;;;;;32.20;15.40;;;;;;;0.96;100.00;98628.81;216771;1290;139289;-86
2024/02/09 08:15:22;;;;;;;31.30;14.80;;;;;;;0.95;100.00;98627.79;217384;1290;138374;-88
2024/02/09 08:20:23;;;;;;;44.10;18.70;;;;;;;0.92;100.00;98615.82;216629;1292;140105;-88
2024/02/09 08:25:23;;;;;;;29.20;13.10;;;;;;;0.91;100.00;98607.60;216973;1290;285984;-86
2024/02/09 08:30:24;;;;;;;50.10;24.60;;;;;;;0.88;100.00;98603.19;216942;1289;140983;-88
2024/02/09 08:35:26;;;;;;;40.90;18.00;;;;;;;0.85;100.00;98599.11;218097;1290;95848;-89
2024/02/09 08:40:26;;;;;;;38.00;18.20;;;;;;;0.85;100.00;98602.54;217381;1291;140470;-90
2024/02/09 08:45:27;;;;;;;35.50;16.30;;;;;;;0.85;100.00;98601.91;218104;1289;138676;-89
2024/02/09 08:50:28;;;;;;;33.10;16.20;;;;;;;0.85;100.00;98591.31;217383;1291;139493;-92
2024/02/09 08:55:29;;;;;;;33.90;15.20;;;;;;;0.87;100.00;98577.89;218079;1291;138353;-91
2024/02/09 09:00:30;;;;;;;56.80;35.80;;;;;;;0.85;100.00;98570.58;217455;1288;139490;-89
2024/02/09 09:05:30;;;;;;;35.30;17.00;;;;;;;0.84;100.00;98559.80;218152;1290;94816;-89
2024/02/09 09:10:31;;;;;;;34.90;16.00;;;;;;;0.83;100.00;98549.10;217504;1290;138794;-90
2024/02/09 09:15:32;;;;;;;34.10;16.70;;;;;;;0.84;100.00;98538.98;218008;1290;139131;-86
2024/02/09 09:20:34;;;;;;;35.50;17.80;;;;;;;0.85;100.00;98531.44;217393;1290;140744;-90
2024/02/09 09:25:35;;;;;;;42.00;20.20;;;;;;;0.86;100.00;98535.55;217461;1290;138967;-90
2024/02/09 09:30:36;;;;;;;41.70;18.70;;;;;;;0.88;100.00;98527.30;217058;1290;139150;-90
2024/02/09 09:35:36;;;;;;;40.00;19.20;;;;;;;0.91;100.00;98524.57;217539;1292;95138;-88
2024/02/09 09:40:39;;;;;;;40.00;19.20;;;;;;;0.90;100.00;98525.41;217334;1290;139235;-88
2024/02/09 09:45:41;;;;;;;40.20;17.20;;;;;;;0.92;100.00;98524.58;218009;1291;138580;-87
2024/02/09 09:50:42;;;;;;;47.30;20.90;;;;;;;0.93;100.00;98512.54;217253;1291;139746;-92
2024/02/09 09:55:45;;;;;;;80.20;35.10;;;;;;;0.94;100.00;98500.41;217802;1290;139482;-88
2024/02/09 10:00:48;;;;;;;41.50;19.00;;;;;;;0.96;100.00;98499.83;217079;1291;139370;-90
2024/02/09 10:05:49;;;;;;;41.10;19.80;;;;;;;0.98;100.00;98485.85;217536;1291;95845;-90
2024/02/09 10:10:50;;;;;;;31.20;15.20;;;;;;;0.98;100.00;98479.67;216903;1291;139476;-90
2024/02/09 10:15:55;;;;;;;30.50;15.70;;;;;;;1.00;100.00;98472.83;217884;1293;138212;-90
2024/02/09 10:20:56;;;;;;;46.30;21.00;;;;;;;1.02;100.00;98468.52;217336;1289;139395;-89
2024/02/09 10:25:58;;;;;;;47.70;19.60;;;;;;;1.05;100.00;98472.67;217938;1289;139501;-87
2024/02/09 10:30:59;;;;;;;35.20;18.00;;;;;;;1.06;100.00;98463.95;217258;1292;139935;-86
2024/02/09 10:36:00;;;;;;;35.70;16.90;;;;;;;1.09;100.00;98465.63;217604;1292;95127;-86
2024/02/09 10:41:02;;;;;;;40.30;21.20;;;;;;;1.11;100.00;98446.70;217108;1290;139436;-85
2024/02/09 10:46:04;;;;;;;34.60;15.20;;;;;;;1.13;100.00;98431.87;217876;1290;138532;-87
2024/02/09 10:51:07;;;;;;;35.20;17.90;;;;;;;1.15;100.00;98418.05;217458;1291;139935;-85
2024/02/09 10:56:12;;;;;;;35.20;16.00;;;;;;;1.17;100.00;98408.41;217941;1291;138396;-86
2024/02/09 11:01:14;;;;;;;35.70;17.20;;;;;;;1.19;100.00;98402.08;217295;1291;139552;-85
2024/02/09 11:06:14;;;;;;;46.40;18.70;;;;;;;1.20;100.00;98395.60;217808;1290;95881;-86
2024/02/09 11:11:15;;;;;;;28.60;15.70;;;;;;;1.20;100.00;98392.98;217255;1290;140218;-85
2024/02/09 11:16:17;;;;;;;30.30;13.10;;;;;;;1.22;100.00;98386.89;217686;1290;139897;-84
2024/02/09 11:21:20;;;;;;;31.80;15.10;;;;;;;1.24;100.00;98378.71;217066;1292;139617;-85
2024/02/09 11:26:21;;;;;;;31.40;14.80;;;;;;;1.25;100.00;98379.11;217431;1292;138415;-86
2024/02/09 11:31:23;;;;;;;28.60;13.90;;;;;;;1.28;100.00;98372.58;217112;1290;139663;-86
2024/02/09 11:36:24;;;;;;;27.00;13.80;;;;;;;1.31;100.00;98377.89;217751;1291;138510;-87
2024/02/09 11:41:25;;;;;;;26.00;11.70;;;;;;;1.33;100.00;98379.32;217561;1289;139458;-84
2024/02/09 11:46:27;;;;;;;23.40;12.20;;;;;;;1.34;100.00;98381.19;217946;1290;138436;-86
2024/02/09 11:51:28;;;;;;;33.60;15.40;;;;;;;1.35;100.00;98379.50;217579;1289;139546;-86
2024/02/09 11:56:31;;;;;;;25.40;13.00;;;;;;;1.37;100.00;98380.67;218044;1290;138439;-85
2024/02/09 12:01:32;;;;;;;28.00;16.50;;;;;;;1.39;100.00;98379.86;217250;1294;142172;-85
2024/02/09 12:06:34;;;;;;;27.60;14.50;;;;;;;1.39;100.00;98372.73;218070;1293;138928;-88
2024/02/09 12:11:36;;;;;;;44.10;20.50;;;;;;;1.40;100.00;98359.58;217533;1289;139393;-85
2024/02/09 12:16:37;;;;;;;31.90;16.10;;;;;;;1.42;100.00;98358.92;217863;1294;139345;-86
2024/02/09 12:21:38;;;;;;;26.40;14.50;;;;;;;1.47;100.00;98353.48;217404;1289;140182;-86
2024/02/09 12:26:39;;;;;;;30.80;15.70;;;;;;;1.49;100.00;98349.02;217866;1292;139490;-87
2024/02/09 12:31:43;;;;;;;35.10;17.50;;;;;;;1.51;100.00;98340.84;217373;1291;140250;-87
2024/02/09 12:36:57;;;;;;;40.90;19.00;;;;;;;1.53;100.00;98343.11;217803;1290;138552;-88
2024/02/09 12:41:58;;;;;;;30.40;16.40;;;;;;;1.54;100.00;98329.41;217560;1291;140540;-87
2024/02/09 12:47:02;;;;;;;39.20;19.20;;;;;;;1.56;100.00;98329.45;217801;1291;140824;-87
2024/02/09 12:52:14;;;;;;;35.50;17.20;;;;;;;1.58;100.00;98329.64;217275;1290;153988;-86
2024/02/09 12:57:14;;;;;;;37.30;16.10;;;;;;;1.61;100.00;98332.06;217551;1292;138477;-87
2024/02/09 13:02:17;;;;;;;31.20;15.00;;;;;;;1.65;100.00;98330.88;217178;1291;139576;-88
2024/02/09 13:07:17;;;;;;;27.20;12.20;;;;;;;1.66;100.00;98325.23;217557;1291;138473;-89
2024/02/09 13:12:19;;;;;;;43.20;19.90;;;;;;;1.69;100.00;98312.80;217280;1290;140384;-87
2024/02/09 13:17:22;;;;;;;38.60;18.50;;;;;;;1.71;100.00;98306.39;218033;1289;95009;-90
2024/02/09 13:22:23;;;;;;;33.80;16.00;;;;;;;1.73;100.00;98304.10;217575;1291;139308;-87
2024/02/09 13:27:28;;;;;;;37.70;16.90;;;;;;;1.77;100.00;98305.01;217946;1289;138409;-90
2024/02/09 13:32:31;;;;;;;47.20;23.80;;;;;;;1.81;100.00;98288.24;217402;1289;140995;-88
2024/02/09 13:37:32;;;;;;;32.10;17.00;;;;;;;1.84;100.00;98292.60;218063;1290;138361;-86
2024/02/09 13:42:33;;;;;;;31.60;16.10;;;;;;;1.87;100.00;98294.52;217453;1289;139467;-88
2024/02/09 13:47:34;;;;;;;31.90;14.90;;;;;;;1.90;100.00;98290.34;217938;1289;94953;-88
2024/02/09 13:52:35;;;;;;;39.90;17.50;;;;;;;1.94;100.00;98286.20;217511;1289;139775;-88
2024/02/09 13:57:35;;;;;;;30.60;15.70;;;;;;;1.97;100.00;98283.67;217991;1289;138391;-85
2024/02/09 14:02:36;;;;;;;35.10;17.10;;;;;;;1.99;100.00;98282.63;217310;1290;139582;-86
2024/02/09 14:07:41;;;;;;;34.30;18.40;;;;;;;2.01;100.00;98276.98;217974;1292;138547;-87
2024/02/09 14:12:42;;;;;;;36.70;18.40;;;;;;;2.03;100.00;98271.66;217357;1291;139953;-88
2024/02/09 14:17:42;;;;;;;38.00;18.00;;;;;;;2.06;100.00;98268.11;218023;1289;96138;-88
2024/02/09 14:22:43;;;;;;;29.90;14.50;;;;;;;2.10;100.00;98261.95;217416;1289;139020;-86
2024/02/09 14:27:43;;;;;;;31.30;15.90;;;;;;;2.12;100.00;98263.98;218045;1289;138346;-87
2024/02/09 14:32:44;;;;;;;30.80;16.80;;;;;;;2.15;100.00;98268.52;217467;1289;139460;-88
2024/02/09 14:37:45;;;;;;;41.30;17.60;;;;;;;2.18;100.00;98257.69;217979;1289;138530;-87
2024/02/09 14:42:45;;;;;;;36.20;18.80;;;;;;;2.21;100.00;98265.86;217450;1289;141234;-87
2024/02/09 14:47:47;;;;;;;33.60;17.70;;;;;;;2.22;100.00;98267.66;217966;1289;95205;-86
2024/02/09 14:52:48;;;;;;;32.70;17.40;;;;;;;2.25;100.00;98265.98;217442;1289;139797;-86
2024/02/09 14:57:52;;;;;;;42.60;21.80;;;;;;;2.28;100.00;98267.39;217973;1289;138914;-85
2024/02/09 15:02:52;;;;;;;45.70;19.80;;;;;;;2.31;100.00;98264.02;217430;1289;139683;-87
2024/02/09 15:07:58;;;;;;;38.60;20.00;;;;;;;2.34;100.00;98257.76;217882;1290;139430;-85
2024/02/09 15:12:59;;;;;;;40.50;20.50;;;;;;;2.36;100.00;98253.98;217164;1292;139390;-86
2024/02/09 15:18:00;;;;;;;46.60;25.20;;;;;;;2.38;100.00;98262.98;217786;1290;95246;-86
2024/02/09 15:23:02;;;;;;;54.40;25.50;;;;;;;2.44;100.00;98268.77;217285;1290;139086;-86
2024/02/09 15:28:03;;;;;;;45.50;22.90;;;;;;;2.45;100.00;98261.41;217699;1290;138299;-85
2024/02/09 15:33:04;;;;;;;49.30;25.20;;;;;;;2.47;100.00;98263.52;217255;1289;139674;-87
2024/02/09 15:38:05;;;;;;;51.60;22.90;;;;;;;2.49;100.00;98281.30;217991;1289;139723;-85
2024/02/09 15:43:07;;;;;;;44.50;22.60;;;;;;;2.51;100.00;98281.24;217359;1289;139236;-85
2024/02/09 15:48:08;;;;;;;41.70;22.30;;;;;;;2.56;100.00;98280.27;218088;1291;94610;-87
2024/02/09 15:53:10;;;;;;;80.30;35.30;;;;;;;2.57;100.00;98280.52;217476;1289;139895;-86
2024/02/09 15:58:10;;;;;;;47.60;24.80;;;;;;;2.55;100.00;98276.85;217819;1290;138088;-86
2024/02/09 16:03:11;;;;;;;49.50;23.20;;;;;;;2.54;100.00;98277.30;217095;1290;139646;-87
2024/02/09 16:08:12;;;;;;;50.20;24.50;;;;;;;2.55;100.00;98277.64;217774;1291;138651;-85
2024/02/09 16:13:15;;;;;;;52.90;24.60;;;;;;;2.55;100.00;98281.81;217174;1290;139541;-85
2024/02/09 16:18:16;;;;;;;59.80;31.40;;;;;;;2.56;100.00;98284.08;217765;1292;105407;-86
2024/02/09 16:23:16;;;;;;;59.80;29.50;;;;;;;2.59;100.00;98282.16;217139;1291;139233;-86
2024/02/09 16:28:17;;;;;;;52.80;26.10;;;;;;;2.60;100.00;98268.73;217963;1289;140047;-83
2024/02/09 16:33:17;;;;;;;63.70;32.50;;;;;;;2.62;100.00;98269.30;217167;1291;139483;-83
2024/02/09 16:38:18;;;;;;;51.60;27.20;;;;;;;2.62;100.00;98274.27;217431;1292;138547;-83
2024/02/09 16:43:19;;;;;;;58.30;28.90;;;;;;;2.64;100.00;98276.98;217006;1289;140948;-83
2024/02/09 16:48:20;;;;;;;58.90;26.80;;;;;;;2.65;100.00;98264.83;218051;1291;95198;-83
2024/02/09 16:53:22;;;;;;;62.30;28.70;;;;;;;2.67;100.00;98262.98;217202;1292;139207;-83
2024/02/09 16:58:23;;;;;;;52.00;27.00;;;;;;;2.71;100.00;98274.17;217453;1292;139402;-84
2024/02/09 17:03:23;;;;;;;55.60;27.50;;;;;;;2.74;100.00;98282.27;216977;1290;140873;-83
2024/02/09 17:08:24;;;;;;;58.10;28.70;;;;;;;2.75;100.00;98285.00;217747;1290;138564;-83
2024/02/09 17:13:25;;;;;;;60.30;30.50;;;;;;;2.77;100.00;98276.33;217349;1291;139253;-84
2024/02/09 17:18:25;;;;;;;66.60;31.70;;;;;;;2.79;100.00;98261.91;217910;1290;138550;-83
2024/02/09 17:23:26;;;;;;;66.90;32.10;;;;;;;2.82;100.00;98265.10;217603;1289;139439;-84
2024/02/09 17:28:28;;;;;;;68.60;31.80;;;;;;;2.85;100.00;98265.89;217990;1289;138494;-83
2024/02/09 17:33:29;;;;;;;89.50;44.80;;;;;;;2.86;100.00;98266.23;217326;1290;139929;-84
2024/02/09 17:38:29;;;;;;;80.90;35.30;;;;;;;2.88;100.00;98266.46;217895;1289;138690;-82
2024/02/09 17:43:30;;;;;;;83.40;36.30;;;;;;;2.92;100.00;98261.13;217191;1290;141284;-83
2024/02/09 17:48:31;;;;;;;84.80;37.10;;;;;;;2.93;100.00;98262.63;217688;1290;140334;-83
2024/02/09 17:53:32;;;;;;;99.40;45.20;;;;;;;2.96;100.00;98264.58;217186;1291;140359;-84
2024/02/09 17:58:33;;;;;;;87.00;37.60;;;;;;;3.00;100.00;98261.95;217632;1291;138542;-84
2024/02/09 18:03:34;;;;;;;75.40;34.80;;;;;;;3.02;100.00;98261.59;216968;1290;140842;-83
2024/02/09 18:08:38;;;;;;;86.00;35.10;;;;;;;3.05;100.00;98261.52;217765;1290;139692;-82
2024/02/09 18:13:39;;;;;;;84.00;39.60;;;;;;;3.06;100.00;98269.21;217079;1290;140111;-83
2024/02/09 18:18:39;;;;;;;96.50;39.00;;;;;;;3.05;100.00;98257.71;217645;1290;138496;-84
2024/02/09 18:23:41;;;;;;;78.70;33.70;;;;;;;3.08;100.00;98259.14;217187;1290;139239;-83
2024/02/09 18:28:45;;;;;;;75.30;33.80;;;;;;;3.11;100.00;98268.55;217561;1289;138375;-84
2024/02/09 18:33:48;;;;;;;72.80;33.20;;;;;;;3.14;100.00;98277.34;216851;1291;139659;-84
2024/02/09 18:38:49;;;;;;;88.90;37.50;;;;;;;3.15;100.00;98276.17;217602;1290;141226;-83
2024/02/09 18:43:49;;;;;;;93.10;40.60;;;;;;;3.16;100.00;98276.19;217021;1290;141485;-84
2024/02/09 18:48:50;;;;;;;97.20;46.90;;;;;;;3.18;100.00;98278.45;217674;1291;138566;-83
2024/02/09 18:53:50;;;;;;;101.70;41.20;;;;;;;3.20;100.00;98272.70;216982;1292;139536;-83
2024/02/09 18:58:52;;;;;;;98.10;40.00;;;;;;;3.23;100.00;98273.73;217554;1290;138526;-84
2024/02/09 19:03:52;;;;;;;104.00;49.50;;;;;;;3.26;100.00;98267.55;217180;1290;139474;-83
2024/02/09 19:08:55;;;;;;;97.90;42.60;;;;;;;3.29;100.00;98253.35;217720;1290;138829;-84
2024/02/09 19:13:57;;;;;;;94.10;42.10;;;;;;;3.30;100.00;98251.34;217046;1292;139669;-85
2024/02/09 19:18:58;;;;;;;106.50;42.50;;;;;;;3.32;100.00;98245.21;217408;1292;138945;-83
2024/02/09 19:23:59;;;;;;;99.60;42.10;;;;;;;3.34;100.00;98244.52;217178;1290;139390;-84
2024/02/09 19:29:00;;;;;;;98.40;39.50;;;;;;;3.36;100.00;98240.26;217824;1290;138826;-86
2024/02/09 19:34:03;;;;;;;107.90;43.10;;;;;;;3.38;100.00;98240.80;217423;1289;139187;-84
2024/02/09 19:39:04;;;;;;;107.30;47.50;;;;;;;3.39;100.00;98250.83;217882;1291;138729;-86
2024/02/09 19:44:05;;;;;;;119.60;52.70;;;;;;;3.41;100.00;98257.68;217408;1290;140505;-85
2024/02/09 19:49:08;;;;;;;114.20;49.20;;;;;;;3.45;100.00;98256.53;218044;1289;138839;-84
2024/02/09 19:54:12;;;;;;;110.30;45.20;;;;;;;3.49;100.00;98249.47;217574;1289;139932;-85
2024/02/09 19:59:13;;;;;;;115.80;49.60;;;;;;;3.50;100.00;98252.27;217986;1290;138493;-85
2024/02/09 20:04:17;;;;;;;113.40;46.60;;;;;;;3.52;100.00;98257.33;217291;1290;139577;-85
2024/02/09 20:09:17;;;;;;;104.30;43.30;;;;;;;3.54;100.00;98254.23;217947;1291;140551;-85
2024/02/09 20:14:18;;;;;;;137.00;53.70;;;;;;;3.57;100.00;98249.81;217289;1289;139295;-85
2024/02/09 20:19:19;;;;;;;112.80;47.10;;;;;;;3.61;100.00;98248.51;217811;1289;138555;-85
2024/02/09 20:24:21;;;;;;;129.60;56.30;;;;;;;3.64;100.00;98245.18;216867;1291;140994;-87
2024/02/09 20:29:22;;;;;;;122.80;49.00;;;;;;;3.67;100.00;98243.40;217285;1292;270129;-86
2024/02/09 20:34:22;;;;;;;124.90;47.70;;;;;;;3.69;100.00;98247.30;217007;1291;139216;-85
2024/02/09 20:39:25;;;;;;;116.50;46.80;;;;;;;3.72;100.00;98251.66;217529;1293;139793;-86
2024/02/09 20:44:26;;;;;;;164.20;68.80;;;;;;;3.77;100.00;98259.98;216983;1290;139567;-85
2024/02/09 20:49:28;;;;;;;156.00;56.10;;;;;;;3.80;100.00;98263.27;217770;1289;139576;-85
2024/02/09 20:54:28;;;;;;;140.80;54.20;;;;;;;3.83;100.00;98267.78;217082;1290;139968;-84
2024/02/09 20:59:29;;;;;;;131.60;50.90;;;;;;;3.86;100.00;98268.33;217725;1290;96486;-86
2024/02/09 21:04:29;;;;;;;181.80;83.70;;;;;;;3.89;100.00;98271.91;217053;1290;139705;-85
2024/02/09 21:09:31;;;;;;;213.70;65.90;;;;;;;3.93;100.00;98279.62;217676;1292;141343;-86
2024/02/09 21:14:33;;;;;;;126.90;50.30;;;;;;;3.97;100.00;98288.18;217060;1292;139111;-85
2024/02/09 21:19:35;;;;;;;133.10;49.00;;;;;;;4.01;100.00;98286.95;217716;1290;138559;-85
2024/02/09 21:24:35;;;;;;;162.20;57.20;;;;;;;4.04;100.00;98283.99;217196;1290;140437;-85
2024/02/09 21:29:36;;;;;;;142.70;60.30;;;;;;;4.07;100.00;98289.45;218044;1289;94922;-85
2024/02/09 21:34:37;;;;;;;143.60;54.40;;;;;;;4.11;100.00;98289.55;217384;1289;139264;-84
2024/02/09 21:39:38;;;;;;;137.50;50.20;;;;;;;4.14;100.00;98292.51;217983;1291;139205;-84
2024/02/09 21:44:38;;;;;;;180.70;63.60;;;;;;;4.16;100.00;98292.27;217472;1289;140010;-84
2024/02/09 21:49:38;;;;;;;129.70;48.90;;;;;;;4.18;100.00;98288.63;217952;1289;141912;-85
2024/02/09 21:54:39;;;;;;;122.90;47.50;;;;;;;4.23;100.00;98287.15;217038;1291;139307;-84
2024/02/09 21:59:43;;;;;;;128.70;47.60;;;;;;;4.26;100.00;98290.49;217734;1291;95305;-83
2024/02/09 22:04:43;;;;;;;147.80;55.30;;;;;;;4.27;100.00;98288.09;217394;1289;139548;-83
2024/02/09 22:09:43;;;;;;;191.00;76.90;;;;;;;4.29;100.00;98287.39;217956;1291;138864;-84
2024/02/09 22:14:45;;;;;;;151.40;58.40;;;;;;;4.33;100.00;98284.60;217398;1290;140080;-84
2024/02/09 22:19:46;;;;;;;134.40;53.20;;;;;;;4.38;100.00;98285.08;217930;1289;139436;-84
2024/02/09 22:24:47;;;;;;;130.60;51.20;;;;;;;4.40;100.00;98284.22;217380;1289;139787;-83
2024/02/09 22:29:51;;;;;;;121.90;49.40;;;;;;;4.41;100.00;98287.48;217978;1290;95002;-84
2024/02/09 22:34:52;;;;;;;128.70;51.80;;;;;;;4.45;100.00;98292.31;217025;1290;141971;-84
2024/02/09 22:39:52;;;;;;;122.50;48.70;;;;;;;4.47;100.00;98292.48;214671;1290;139307;-84
2024/02/09 22:44:53;;;;;;;123.20;48.70;;;;;;;4.49;100.00;98293.80;212613;1293;139265;-84
2024/02/09 22:49:53;;;;;;;124.70;48.00;;;;;;;4.49;100.00;98294.19;212735;1290;139135;-83
2024/02/09 22:54:55;;;;;;;175.20;65.40;;;;;;;4.47;100.00;98288.27;212329;1292;139437;-84
2024/02/09 22:59:56;;;;;;;160.20;56.70;;;;;;;4.49;100.00;98278.32;212414;1290;139605;-83
2024/02/09 23:05:00;;;;;;;136.80;51.30;;;;;;;4.50;100.00;98279.87;212527;1293;139571;-84
2024/02/09 23:10:07;;;;;;;134.70;51.40;;;;;;;4.51;100.00;98291.15;212581;1291;139997;-85
2024/02/09 23:15:11;;;;;;;131.60;52.90;;;;;;;4.52;100.00;98288.90;213447;1289;138614;-84
2024/02/09 23:20:12;;;;;;;135.80;53.20;;;;;;;4.54;100.00;98288.35;212970;1291;139511;-85
2024/02/09 23:25:13;;;;;;;133.10;50.60;;;;;;;4.56;100.00;98283.05;212968;1293;139584;-84
2024/02/09 23:30:14;;;;;;;164.20;61.50;;;;;;;4.59;100.00;98279.48;212735;1292;140914;-84
2024/02/09 23:35:14;;;;;;;141.80;55.10;;;;;;;4.62;100.00;98278.00;213546;1293;138269;-84
2024/02/09 23:40:15;;;;;;;146.20;53.10;;;;;;;4.64;100.00;98282.20;213374;1290;139585;-84
2024/02/09 23:45:17;;;;;;;135.40;51.60;;;;;;;4.67;100.00;98279.09;213722;1291;138632;-84
2024/02/09 23:50:20;;;;;;;123.60;49.90;;;;;;;4.70;100.00;98273.48;213617;1291;140449;-84
2024/02/09 23:55:22;;;;;;;117.00;48.30;;;;;;;4.73;100.00;98268.20;213960;1293;138560;-84
